Time;durP1;ratioP1;P1;durP2;ratioP2;P2;SDS_P1;SDS_P2;PMS_P1;PMS_P2;Temp;Humidity;BMP_temperature;BMP_pressure;BME280_temperature;BME280_humidity;BME280_pressure;Samples;Min_cycle;Max_cycle;Signal;HPM_P1;HPM_P2
2023/07/07 00:01:07;;;;;;;;;5.25;4.00;;;;;23.35;53.18;99227.75;5095970;27;45422;-58
2023/07/07 00:03:33;;;;;;;;;10.00;6.00;;;;;23.36;53.04;99231.31;5092330;27;45503;-58
2023/07/07 00:06:00;;;;;;;;;8.40;6.20;;;;;23.37;53.27;99227.63;5085137;27;45525;-59
2023/07/07 00:08:25;;;;;;;;;7.00;4.40;;;;;23.38;53.30;99223.94;5095608;27;45366;-58
2023/07/07 00:10:51;;;;;;;;;6.50;4.50;;;;;23.36;53.63;99221.38;5096158;27;45977;-58
2023/07/07 00:13:17;;;;;;;;;5.75;4.75;;;;;23.35;53.83;99217.00;5095499;27;45345;-59
2023/07/07 00:15:44;;;;;;;;;5.50;4.00;;;;;23.33;53.72;99222.50;5094474;27;45410;-59
2023/07/07 00:18:10;;;;;;;;;5.40;5.00;;;;;23.32;54.28;99226.19;5095444;27;45461;-59
2023/07/07 00:20:36;;;;;;;;;4.60;3.40;;;;;23.31;54.36;99224.50;5086499;27;46174;-53
2023/07/07 00:23:01;;;;;;;;;5.25;5.25;;;;;23.31;54.50;99231.72;5088517;27;45394;-53
2023/07/07 00:25:26;;;;;;;;;6.75;5.75;;;;;23.30;54.44;99235.41;5109379;27;45444;-53
2023/07/07 00:27:52;;;;;;;;;10.00;8.00;;;;;23.27;54.46;99235.69;5093340;27;45716;-53
2023/07/07 00:30:17;;;;;;;;;5.25;4.50;;;;;23.25;54.47;99232.28;5095127;27;45576;-51
2023/07/07 00:32:43;;;;;;;;;5.75;5.00;;;;;23.19;54.56;99225.63;5093685;27;45400;-54
2023/07/07 00:35:08;;;;;;;;;6.50;5.00;;;;;23.17;54.68;99232.13;5084794;27;45631;-54
2023/07/07 00:37:35;;;;;;;;;6.25;4.25;;;;;23.14;54.69;99238.63;5095613;27;45404;-55
2023/07/07 00:40:01;;;;;;;;;4.80;4.00;;;;;23.13;54.99;99239.59;5086295;27;45571;-54
2023/07/07 00:42:26;;;;;;;;;4.60;3.20;;;;;23.09;54.69;99248.97;5093516;27;45458;-51
2023/07/07 00:45:12;;;;;;;;;6.00;5.50;;;;;23.08;54.87;99241.88;5095463;27;45417;-51
2023/07/07 00:48:00;;;;;;;;;5.80;5.00;;;;;23.07;54.58;99247.41;5095008;27;45592;-51
2023/07/07 00:50:30;;;;;;;;;5.00;5.00;;;;;23.04;54.54;99243.13;5093900;27;46301;-54
2023/07/07 00:52:56;;;;;;;;;7.60;5.40;;;;;23.01;54.83;99247.94;5092702;27;45423;-53
2023/07/07 00:55:28;;;;;;;;;7.25;6.00;;;;;22.98;54.95;99252.59;5095825;27;45996;-54
2023/07/07 00:57:54;;;;;;;;;5.00;5.00;;;;;22.95;55.22;99254.72;5095141;27;45474;-53
2023/07/07 01:00:20;;;;;;;;;6.00;6.00;;;;;22.91;55.57;99262.22;5095384;27;45411;-51
2023/07/07 01:02:56;;;;;;;;;8.25;6.00;;;;;22.89;55.31;99268.69;5094604;27;45924;-55
2023/07/07 01:05:25;;;;;;;;;5.20;5.20;;;;;22.87;55.72;99267.97;5094060;27;45402;-51
2023/07/07 01:07:52;;;;;;;;;6.20;5.80;;;;;22.85;55.37;99267.25;5095016;27;45541;-51
2023/07/07 01:10:21;;;;;;;;;8.00;6.00;;;;;22.84;54.75;99268.25;5090816;27;47371;-51
2023/07/07 01:12:48;;;;;;;;;5.80;4.60;;;;;22.83;54.72;99272.78;5089151;27;45513;-53
2023/07/07 01:15:14;;;;;;;;;7.20;5.60;;;;;22.81;54.62;99272.06;5093530;27;45419;-54
2023/07/07 01:17:58;;;;;;;;;6.00;5.25;;;;;22.81;54.89;99273.88;5094464;27;45545;-53
2023/07/07 01:20:43;;;;;;;;;6.80;5.80;;;;;22.78;54.33;99279.56;5093326;27;45508;-51
2023/07/07 01:23:18;;;;;;;;;5.40;4.40;;;;;22.76;54.54;99276.13;5092921;27;45488;-54
2023/07/07 01:25:49;;;;;;;;;6.00;5.40;;;;;22.73;55.23;99271.84;5094445;27;45400;-54
2023/07/07 01:28:32;;;;;;;;;5.20;4.40;;;;;22.69;55.77;99273.09;5085947;27;45404;-53
2023/07/07 01:31:11;;;;;;;;;6.00;5.80;;;;;22.66;55.09;99268.00;5092021;27;46270;-54
2023/07/07 01:33:37;;;;;;;;;6.00;5.60;;;;;22.63;55.26;99270.94;5094305;27;45383;-54
2023/07/07 01:36:03;;;;;;;;;5.80;2.00;;;;;22.57;55.53;99266.97;5090494;27;45499;-54
2023/07/07 01:38:36;;;;;;;;;5.75;5.00;;;;;22.55;55.46;99274.31;5094286;27;45497;-54
2023/07/07 01:41:34;;;;;;;;;4.40;4.00;;;;;22.52;55.37;99269.19;5085217;27;46073;-51
2023/07/07 01:44:08;;;;;;;;;6.00;5.60;;;;;22.51;55.57;99274.72;5093396;27;45517;-52
2023/07/07 01:46:43;;;;;;;;;6.40;5.00;;;;;22.49;55.66;99274.00;5093704;27;45410;-52
2023/07/07 01:49:14;;;;;;;;;5.00;4.40;;;;;22.48;55.20;99275.81;5091254;27;45445;-53
2023/07/07 01:51:48;;;;;;;;;6.00;5.00;;;;;22.48;55.79;99269.59;5089442;27;45660;-51
2023/07/07 01:54:16;;;;;;;;;6.20;5.00;;;;;22.46;55.93;99269.72;5094360;27;45420;-54
2023/07/07 01:56:44;;;;;;;;;15.00;12.25;;;;;22.46;55.24;99260.81;5093722;27;45398;-54
2023/07/07 01:59:10;;;;;;;;;6.50;6.25;;;;;22.45;55.43;99272.56;5089401;27;45692;-53
2023/07/07 02:01:36;;;;;;;;;6.00;5.00;;;;;22.43;54.98;99263.78;5093913;27;45499;-54
2023/07/07 02:04:02;;;;;;;;;4.00;3.60;;;;;22.41;54.99;99273.81;5091246;27;45477;-55
2023/07/07 02:06:27;;;;;;;;;5.50;4.00;;;;;22.40;54.51;99267.59;5087065;27;45393;-54
2023/07/07 02:08:53;;;;;;;;;6.00;4.50;;;;;22.40;54.82;99254.16;5082991;27;45465;-54
2023/07/07 02:11:19;;;;;;;;;3.75;3.75;;;;;22.38;54.79;99261.50;5102799;27;46010;-53
2023/07/07 02:13:44;;;;;;;;;5.50;5.50;;;;;22.37;54.91;99258.94;5090709;27;45450;-54
2023/07/07 02:16:09;;;;;;;;;9.25;6.25;;;;;22.36;55.06;99265.28;5092199;27;45789;-54
2023/07/07 02:18:37;;;;;;;;;5.75;4.75;;;;;22.35;54.96;99256.38;5088027;27;45419;-54
2023/07/07 02:21:04;;;;;;;;;5.80;5.80;;;;;22.33;55.51;99261.03;5086694;27;47137;-51
2023/07/07 02:23:29;;;;;;;;;6.00;5.00;;;;;22.33;55.92;99260.19;5086140;27;45702;-52
2023/07/07 02:25:54;;;;;;;;;5.75;5.25;;;;;22.30;55.79;99269.34;5094586;27;46142;-53
2023/07/07 02:28:20;;;;;;;;;9.00;6.25;;;;;22.26;56.15;99270.63;5087991;27;45455;-54
2023/07/07 02:30:45;;;;;;;;;6.75;6.25;;;;;22.18;56.51;99260.53;5088447;27;45972;-54
2023/07/07 02:33:11;;;;;;;;;7.00;7.00;;;;;22.14;56.50;99263.59;5093245;27;45363;-54
2023/07/07 02:35:36;;;;;;;;;5.25;5.00;;;;;22.09;57.09;99255.94;5086855;27;45764;-54
2023/07/07 02:38:02;;;;;;;;;5.00;3.50;;;;;22.06;57.08;99253.50;5092002;27;45550;-53
2023/07/07 02:40:27;;;;;;;;;5.75;4.50;;;;;22.02;57.32;99256.59;5086782;27;46635;-54
2023/07/07 02:42:52;;;;;;;;;6.25;6.25;;;;;21.97;57.19;99254.25;5092975;27;45444;-52
2023/07/07 02:45:18;;;;;;;;;6.00;5.25;;;;;21.94;57.57;99260.75;5087599;27;46005;-53
2023/07/07 02:47:43;;;;;;;;;5.75;4.75;;;;;21.93;57.57;99259.06;5093046;27;45466;-52
2023/07/07 02:50:09;;;;;;;;;8.25;5.50;;;;;21.92;57.59;99265.41;5082725;27;46709;-50
2023/07/07 02:52:35;;;;;;;;;5.25;5.00;;;;;21.88;57.83;99266.63;5090837;27;45367;-53
2023/07/07 02:55:00;;;;;;;;;8.60;6.20;;;;;21.86;57.82;99263.22;5096631;27;45382;-52
2023/07/07 02:57:26;;;;;;;;;5.00;3.00;;;;;21.85;57.40;99266.03;5096835;27;45494;-53
2023/07/07 02:59:51;;;;;;;;;7.75;6.50;;;;;21.83;57.34;99260.78;5097063;27;46089;-53
2023/07/07 03:02:16;;;;;;;;;4.25;4.25;;;;;21.81;57.60;99267.25;5092253;27;45376;-54
2023/07/07 03:04:45;;;;;;;;;7.75;5.25;;;;;21.78;57.35;99265.72;5093103;27;45361;-53
2023/07/07 03:07:11;;;;;;;;;5.20;4.00;;;;;21.75;57.86;99270.47;5093722;27;45558;-52
2023/07/07 03:09:36;;;;;;;;;5.50;5.50;;;;;21.71;58.11;99263.66;5088065;27;45492;-51
2023/07/07 03:12:02;;;;;;;;;4.75;4.75;;;;;21.68;58.07;99272.81;5096509;27;45495;-53
2023/07/07 03:14:27;;;;;;;;;4.25;4.00;;;;;21.66;58.10;99274.75;5088263;27;45427;-54
2023/07/07 03:16:56;;;;;;;;;4.75;4.25;;;;;21.64;58.30;99265.13;5096376;27;45592;-54
2023/07/07 03:19:21;;;;;;;;;4.80;4.00;;;;;21.63;58.33;99274.16;5089275;27;46296;-53
2023/07/07 03:21:47;;;;;;;;;5.50;5.00;;;;;21.61;58.34;99271.63;5093643;27;45290;-54
2023/07/07 03:24:14;;;;;;;;;5.00;5.00;;;;;21.60;58.59;99275.28;5095468;27;45396;-53
2023/07/07 03:26:39;;;;;;;;;8.40;7.40;;;;;21.57;58.47;99279.09;5095958;27;45491;-54
2023/07/07 03:29:04;;;;;;;;;6.75;6.00;;;;;21.57;58.15;99275.53;5091813;27;47127;-51
2023/07/07 03:31:31;;;;;;;;;6.00;5.00;;;;;21.56;58.64;99279.19;5087959;27;45823;-54
2023/07/07 03:34:02;;;;;;;;;6.60;5.80;;;;;21.56;58.84;99274.69;5092620;27;45388;-53
2023/07/07 03:36:30;;;;;;;;;4.80;4.20;;;;;21.55;58.69;99281.03;5092371;27;45737;-52
2023/07/07 03:38:56;;;;;;;;;6.20;6.20;;;;;21.55;58.96;99285.56;5089704;27;45653;-54
2023/07/07 03:41:25;;;;;;;;;6.75;6.50;;;;;21.54;58.89;99292.75;5090751;27;45472;-52
2023/07/07 03:43:53;;;;;;;;;7.20;6.00;;;;;21.55;58.48;99291.75;5089438;27;45337;-53
2023/07/07 03:46:20;;;;;;;;;7.00;6.25;;;;;21.56;59.08;99300.66;5091980;27;45479;-53
2023/07/07 03:48:48;;;;;;;;;6.40;6.40;;;;;21.57;58.99;99294.31;5091735;27;46191;-54
2023/07/07 03:51:15;;;;;;;;;7.60;5.40;;;;;21.56;58.61;99298.84;5079675;27;45380;-51
2023/07/07 03:53:42;;;;;;;;;5.60;5.60;;;;;21.55;59.02;99302.50;5092827;27;45403;-53
2023/07/07 03:56:08;;;;;;;;;7.50;6.25;;;;;21.54;58.88;99310.66;5092477;27;45590;-54
2023/07/07 03:58:34;;;;;;;;;8.00;6.00;;;;;21.52;58.76;99321.53;5094562;27;45541;-52
2023/07/07 04:01:01;;;;;;;;;6.75;6.00;;;;;21.51;58.49;99319.81;5095022;27;45446;-53
2023/07/07 04:03:26;;;;;;;;;5.80;4.20;;;;;21.50;58.25;99320.78;5095291;27;45621;-53
2023/07/07 04:05:55;;;;;;;;;8.00;6.75;;;;;21.46;58.11;99324.69;5093884;27;45351;-59
2023/07/07 04:08:24;;;;;;;;;6.40;5.00;;;;;21.44;57.81;99323.16;5094608;27;45663;-59
2023/07/07 04:11:01;;;;;;;;;7.40;6.00;;;;;21.43;57.89;99321.44;5095626;27;45642;-59
2023/07/07 04:13:29;;;;;;;;;5.60;5.00;;;;;21.43;58.20;99329.47;5085013;27;45500;-59
2023/07/07 04:16:01;;;;;;;;;6.20;6.20;;;;;21.41;57.96;99321.56;5111283;27;45397;-58
2023/07/07 04:18:27;;;;;;;;;6.20;5.80;;;;;21.40;57.89;99321.69;5095666;27;45592;-58
2023/07/07 04:20:53;;;;;;;;;6.50;5.75;;;;;21.35;58.20;99324.72;5084960;27;46104;-58
2023/07/07 04:23:18;;;;;;;;;7.50;6.00;;;;;21.33;58.48;99325.81;5093584;27;45538;-58
2023/07/07 04:25:45;;;;;;;;;6.25;6.25;;;;;21.29;58.49;99338.63;5091166;27;45509;-58
2023/07/07 04:28:10;;;;;;;;;6.20;6.00;;;;;21.28;58.06;99331.59;5091747;27;45392;-58
2023/07/07 04:30:36;;;;;;;;;5.75;5.50;;;;;21.28;58.29;99328.06;5091792;27;45376;-58
2023/07/07 04:33:01;;;;;;;;;8.25;5.25;;;;;21.28;58.36;99333.41;5092998;27;45374;-58
2023/07/07 04:35:26;;;;;;;;;5.00;4.00;;;;;21.27;58.60;99334.38;5091107;27;45377;-58
2023/07/07 04:37:52;;;;;;;;;7.25;7.25;;;;;21.27;58.79;99332.56;5095311;27;46299;-58
2023/07/07 04:40:17;;;;;;;;;9.50;7.00;;;;;21.29;59.14;99346.66;5093945;27;45458;-58
2023/07/07 04:42:42;;;;;;;;;13.00;13.00;;;;;21.31;59.20;99343.88;5094657;27;45874;-59
2023/07/07 04:45:08;;;;;;;;;12.75;9.00;;;;;21.31;59.35;99343.88;5093479;27;45483;-59
2023/07/07 04:47:33;;;;;;;;;7.75;6.75;;;;;21.31;59.45;99343.88;5094811;27;46410;-59
2023/07/07 04:49:59;;;;;;;;;5.25;5.25;;;;;21.32;59.87;99343.75;5094599;27;45879;-58
2023/07/07 04:52:24;;;;;;;;;6.00;6.00;;;;;21.35;59.44;99354.22;5085065;27;45486;-58
2023/07/07 04:54:50;;;;;;;;;5.75;5.75;;;;;21.38;59.42;99350.44;5088575;27;45459;-58
2023/07/07 04:57:15;;;;;;;;;8.00;7.00;;;;;21.42;59.39;99354.59;5094181;27;45545;-59
2023/07/07 04:59:41;;;;;;;;;9.75;8.00;;;;;21.47;59.29;99357.75;5089411;27;45386;-59
2023/07/07 05:02:06;;;;;;;;;9.75;7.75;;;;;21.51;59.08;99360.06;5094783;27;45454;-59
2023/07/07 05:04:31;;;;;;;;;7.00;7.00;;;;;21.53;58.72;99349.22;5095160;27;45445;-59
2023/07/07 05:06:57;;;;;;;;;10.25;8.50;;;;;21.58;58.41;99355.91;5091109;27;45528;-58
2023/07/07 05:09:22;;;;;;;;;8.50;7.25;;;;;21.65;58.35;99363.44;5085198;27;45430;-57
2023/07/07 05:11:48;;;;;;;;;7.25;5.50;;;;;21.67;58.30;99361.50;5094263;27;45513;-57
2023/07/07 05:14:13;;;;;;;;;9.75;6.00;;;;;21.69;58.69;99365.75;5093673;27;45435;-59
2023/07/07 05:16:38;;;;;;;;;8.25;6.25;;;;;21.71;58.54;99362.94;5092610;27;47202;-59
2023/07/07 05:19:05;;;;;;;;;5.75;4.50;;;;;21.74;58.36;99363.56;5094341;27;45461;-58
2023/07/07 05:21:31;;;;;;;;;7.80;5.60;;;;;21.76;58.20;99368.81;5091782;27;45545;-58
2023/07/07 05:23:57;;;;;;;;;6.25;6.25;;;;;21.82;58.05;99377.19;5082576;27;45570;-57
2023/07/07 05:26:27;;;;;;;;;6.00;6.00;;;;;21.86;57.94;99381.34;5090256;27;46075;-59
2023/07/07 05:28:53;;;;;;;;;6.80;6.20;;;;;21.89;57.42;99381.09;5089505;27;45427;-59
2023/07/07 05:31:19;;;;;;;;;8.00;7.25;;;;;21.92;57.59;99396.94;5093880;27;45368;-57
2023/07/07 05:33:45;;;;;;;;;13.50;7.75;;;;;21.97;57.44;99388.50;5094144;27;45630;-57
2023/07/07 05:36:10;;;;;;;;;8.75;7.50;;;;;21.98;57.51;99392.88;5085197;27;45495;-58
2023/07/07 05:38:39;;;;;;;;;8.00;6.50;;;;;21.96;57.06;99394.84;5091512;27;45444;-58
2023/07/07 05:41:05;;;;;;;;;5.80;5.80;;;;;21.98;57.42;99392.03;5094202;27;45427;-59
2023/07/07 05:43:30;;;;;;;;;11.75;10.00;;;;;22.00;57.45;99390.97;5092277;27;45430;-59
2023/07/07 05:46:11;;;;;;;;;9.00;7.00;;;;;22.05;57.27;99390.59;5093938;27;46813;-70
2023/07/07 05:48:38;;;;;;;;;8.00;7.40;;;;;22.14;57.35;99384.44;5092854;27;45406;-59
2023/07/07 05:51:06;;;;;;;;;8.75;5.00;;;;;22.21;56.76;99391.00;5087283;27;45475;-67
2023/07/07 05:53:31;;;;;;;;;7.00;6.00;;;;;22.28;56.55;99387.69;5091935;27;45527;-59
2023/07/07 05:56:03;;;;;;;;;8.25;5.75;;;;;22.33;56.10;99387.28;5092589;27;47045;-59
2023/07/07 05:58:30;;;;;;;;;5.20;5.20;;;;;22.36;55.72;99386.19;5093076;27;45446;-60
2023/07/07 06:00:56;;;;;;;;;8.80;7.60;;;;;22.36;55.59;99384.34;5093813;27;45423;-60
2023/07/07 06:03:21;;;;;;;;;7.25;5.75;;;;;22.37;55.98;99379.81;5093247;27;45487;-60
2023/07/07 06:05:46;;;;;;;;;5.50;5.50;;;;;22.41;55.77;99378.59;5089974;27;45527;-60
2023/07/07 06:08:12;;;;;;;;;8.00;7.25;;;;;22.48;55.34;99385.13;5083031;27;45502;-59
2023/07/07 06:10:37;;;;;;;;;11.00;7.00;;;;;22.50;55.31;99383.16;5084137;27;45500;-63
2023/07/07 06:13:03;;;;;;;;;9.00;6.00;;;;;22.54;55.02;99385.47;5093088;27;45470;-59
2023/07/07 06:15:29;;;;;;;;;6.00;6.00;;;;;22.57;54.92;99382.53;5084705;27;46143;-58
2023/07/07 06:17:55;;;;;;;;;7.80;7.00;;;;;22.63;54.59;99381.13;5082763;27;45353;-58
2023/07/07 06:20:20;;;;;;;;;8.00;6.00;;;;;22.67;54.70;99385.28;5084774;27;45674;-59
2023/07/07 06:22:46;;;;;;;;;6.25;5.00;;;;;22.70;54.48;99386.84;5092861;27;45539;-59
2023/07/07 06:25:11;;;;;;;;;7.25;6.00;;;;;22.75;54.46;99387.31;5093507;27;46229;-59
2023/07/07 06:27:36;;;;;;;;;11.75;8.00;;;;;22.80;54.73;99385.09;5090168;27;45440;-59
2023/07/07 06:30:03;;;;;;;;;5.75;5.75;;;;;22.82;54.54;99386.66;5093711;27;45864;-58
2023/07/07 06:32:28;;;;;;;;;7.00;7.00;;;;;22.84;53.96;99392.78;5094959;27;45474;-59
2023/07/07 06:34:53;;;;;;;;;6.75;6.00;;;;;22.86;54.03;99400.72;5091887;27;46689;-59
2023/07/07 06:37:20;;;;;;;;;6.25;6.00;;;;;22.91;53.41;99387.72;5095431;27;45451;-59
2023/07/07 06:39:45;;;;;;;;;8.40;7.00;;;;;22.95;53.49;99395.41;5096854;27;45488;-59
2023/07/07 06:42:14;;;;;;;;;3.50;3.50;;;;;22.97;52.79;99389.88;5094859;27;45537;-59
2023/07/07 06:44:40;;;;;;;;;6.60;6.20;;;;;23.00;52.79;99384.22;5092972;27;45391;-59
2023/07/07 06:47:11;;;;;;;;;6.00;5.20;;;;;23.03;52.76;99388.50;5067438;27;45472;-59
2023/07/07 06:49:36;;;;;;;;;13.60;11.60;;;;;23.07;52.48;99400.69;5086537;27;45422;-58
2023/07/07 06:52:01;;;;;;;;;7.00;7.00;;;;;23.10;52.26;99398.59;5093771;27;45383;-58
2023/07/07 06:54:27;;;;;;;;;8.00;7.25;;;;;23.16;52.43;99399.88;5090603;27;45672;-59
2023/07/07 06:56:52;;;;;;;;;6.00;5.50;;;;;23.25;52.25;99396.41;5090365;27;45415;-57
2023/07/07 06:59:18;;;;;;;;;8.50;7.75;;;;;23.29;52.29;99400.53;5094332;27;45572;-59
2023/07/07 07:01:43;;;;;;;;;7.25;7.25;;;;;23.32;52.51;99408.31;5094579;27;45400;-59
2023/07/07 07:04:09;;;;;;;;;6.50;5.25;;;;;23.37;51.75;99414.13;5090935;27;45378;-57
2023/07/07 07:06:34;;;;;;;;;9.00;5.75;;;;;23.43;52.05;99410.06;5085714;27;45356;-60
2023/07/07 07:08:59;;;;;;;;;10.75;8.00;;;;;23.48;51.80;99405.97;5095937;27;45448;-60
2023/07/07 07:11:25;;;;;;;;;5.00;5.00;;;;;23.53;52.47;99405.59;5094513;27;45518;-60
2023/07/07 07:13:50;;;;;;;;;11.50;6.50;;;;;23.59;52.15;99407.75;5094004;27;45567;-60
2023/07/07 07:16:16;;;;;;;;;9.25;7.00;;;;;23.64;52.18;99400.94;5094865;27;45472;-60
2023/07/07 07:18:41;;;;;;;;;7.25;5.50;;;;;23.69;51.91;99397.84;5094808;27;45530;-59
2023/07/07 07:21:07;;;;;;;;;6.50;6.50;;;;;23.74;51.74;99400.13;5089052;27;45414;-59
2023/07/07 07:23:32;;;;;;;;;10.25;7.75;;;;;23.79;52.12;99401.44;5088650;27;46186;-59
2023/07/07 07:25:57;;;;;;;;;9.00;8.00;;;;;23.84;51.62;99401.00;5091773;27;45513;-59
2023/07/07 07:28:23;;;;;;;;;11.25;8.25;;;;;23.87;51.49;99396.19;5088850;27;45396;-59
2023/07/07 07:30:49;;;;;;;;;10.50;7.25;;;;;23.92;50.97;99396.63;5090876;27;45382;-64
2023/07/07 07:33:22;;;;;;;;;9.75;8.25;;;;;24.07;51.07;99393.53;5090739;27;46142;-64
2023/07/07 07:35:48;;;;;;;;;6.20;6.00;;;;;24.21;50.47;99403.88;5079887;27;45369;-64
2023/07/07 07:38:18;;;;;;;;;7.25;6.25;;;;;24.29;49.99;99404.94;5093545;27;45460;-64
2023/07/07 07:40:44;;;;;;;;;6.00;6.00;;;;;24.35;49.66;99401.66;5090394;27;45540;-64
2023/07/07 07:43:09;;;;;;;;;8.50;7.75;;;;;24.47;49.87;99396.94;5092725;27;45355;-64
2023/07/07 07:45:35;;;;;;;;;8.00;8.00;;;;;24.58;49.63;99402.22;5095144;27;45413;-64
2023/07/07 07:48:01;;;;;;;;;6.00;4.80;;;;;24.68;49.37;99413.84;5094224;27;45543;-64
2023/07/07 07:50:28;;;;;;;;;5.00;5.00;;;;;24.77;49.15;99414.84;5093702;27;45451;-64
2023/07/07 07:52:54;;;;;;;;;8.60;7.00;;;;;24.81;48.78;99405.44;5094094;27;45556;-64
2023/07/07 07:55:20;;;;;;;;;8.60;7.80;;;;;24.85;48.83;99408.69;5094716;27;45439;-65
2023/07/07 07:57:45;;;;;;;;;11.00;7.50;;;;;24.86;48.53;99400.47;5093790;27;45470;-64
2023/07/07 08:00:11;;;;;;;;;8.25;8.25;;;;;24.87;48.80;99399.47;5093777;27;45439;-64
2023/07/07 08:02:37;;;;;;;;;14.25;10.75;;;;;24.89;48.29;99394.78;5093501;27;45725;-64
2023/07/07 08:05:03;;;;;;;;;9.25;6.25;;;;;24.92;47.89;99401.72;5088536;27;45466;-65
2023/07/07 08:07:30;;;;;;;;;9.40;6.80;;;;;24.93;47.72;99395.34;5089891;27;45503;-64
2023/07/07 08:09:55;;;;;;;;;12.00;8.60;;;;;24.95;47.15;99396.94;5094925;27;46039;-65
2023/07/07 08:12:21;;;;;;;;;6.25;6.25;;;;;24.99;46.92;99397.47;5093163;27;45652;-65
2023/07/07 08:14:46;;;;;;;;;8.50;7.00;;;;;25.00;46.94;99393.78;5094257;27;45388;-65
2023/07/07 08:17:13;;;;;;;;;9.75;8.50;;;;;25.04;46.50;99396.03;5093189;27;45849;-65
2023/07/07 08:19:41;;;;;;;;;6.00;5.60;;;;;25.08;45.93;99403.84;5091878;27;45525;-65
2023/07/07 08:22:19;;;;;;;;;12.40;7.20;;;;;25.17;45.85;99395.72;5086993;27;45647;-66
2023/07/07 08:24:48;;;;;;;;;8.20;7.20;;;;;25.28;45.51;99403.66;5085673;27;45356;-64
2023/07/07 08:27:14;;;;;;;;;9.80;8.00;;;;;25.39;46.05;99413.41;5090712;27;45454;-65
2023/07/07 08:29:41;;;;;;;;;7.20;6.00;;;;;25.47;44.97;99412.66;5092363;27;45463;-65
2023/07/07 08:32:08;;;;;;;;;7.60;7.20;;;;;25.48;44.81;99403.53;5093079;27;46209;-65
2023/07/07 08:34:33;;;;;;;;;6.80;6.00;;;;;25.48;44.88;99403.53;5088924;27;45579;-65
2023/07/07 08:36:59;;;;;;;;;10.50;7.75;;;;;25.48;45.03;99406.25;5091840;27;45713;-65
2023/07/07 08:39:28;;;;;;;;;9.25;7.00;;;;;25.43;44.48;99400.47;5092607;27;45910;-65
2023/07/07 08:42:01;;;;;;;;;5.00;4.40;;;;;25.37;44.81;99404.59;5092558;27;45551;-65
2023/07/07 08:44:30;;;;;;;;;8.80;5.60;;;;;25.32;44.79;99394.22;5093751;27;45331;-65
2023/07/07 08:47:39;;;;;;;;;7.60;7.40;;;;;25.27;45.38;99395.69;5093522;27;45507;-65
2023/07/07 08:50:16;;;;;;;;;9.20;8.00;;;;;25.21;46.09;99397.13;5092977;27;45459;-65
2023/07/07 08:52:59;;;;;;;;;11.40;9.00;;;;;25.23;46.70;99395.13;5092599;27;45653;-65
2023/07/07 08:55:43;;;;;;;;;8.60;7.00;;;;;25.28;47.22;99386.59;5093306;27;45411;-65
2023/07/07 08:58:23;;;;;;;;;16.00;11.80;;;;;25.30;47.13;99401.63;5087285;27;45424;-64
2023/07/07 09:01:04;;;;;;;;;7.80;7.80;;;;;25.27;47.63;99403.78;5087218;27;45420;-65
2023/07/07 09:03:54;;;;;;;;;10.80;10.40;;;;;25.24;47.79;99404.94;5083801;27;45431;-66
2023/07/07 09:06:41;;;;;;;;;8.40;6.00;;;;;25.20;47.49;99398.13;5081298;27;45483;-65
2023/07/07 09:09:29;;;;;;;;;12.80;11.20;;;;;25.18;48.01;99393.88;5083591;27;45455;-65
2023/07/07 09:12:12;;;;;;;;;9.40;8.00;;;;;25.16;48.45;99388.63;5094706;27;45616;-65
2023/07/07 09:14:39;;;;;;;;;11.00;8.60;;;;;25.16;49.17;99387.75;5093187;27;45488;-65
2023/07/07 09:17:19;;;;;;;;;9.40;9.40;;;;;25.15;49.06;99386.06;5093292;27;45508;-65
2023/07/07 09:19:47;;;;;;;;;10.20;6.40;;;;;25.16;49.19;99376.97;5086151;27;45533;-64
2023/07/07 09:22:28;;;;;;;;;7.00;7.00;;;;;25.19;49.53;99368.59;5089510;27;45550;-65
2023/07/07 09:24:57;;;;;;;;;12.60;8.80;;;;;25.20;49.24;99360.34;5104224;27;48319;-64
2023/07/07 09:27:40;;;;;;;;;8.80;7.80;;;;;25.23;49.15;99370.00;5092369;27;45419;-64
2023/07/07 09:30:39;;;;;;;;;6.80;6.80;;;;;25.25;48.95;99368.84;5083121;27;45412;-65
2023/07/07 09:33:04;;;;;;;;;10.00;7.80;;;;;25.29;48.80;99362.16;5088061;27;45359;-65
2023/07/07 09:35:44;;;;;;;;;8.50;7.00;;;;;25.34;48.52;99361.69;5080037;27;45473;-65
2023/07/07 09:38:40;;;;;;;;;9.40;7.20;;;;;25.38;48.16;99352.31;5092076;27;45512;-64
2023/07/07 09:41:16;;;;;;;;;9.80;7.60;;;;;25.42;47.07;99353.72;5071353;27;45641;-65
2023/07/07 09:44:07;;;;;;;;;9.40;9.20;;;;;25.45;46.46;99352.56;5088217;27;45598;-65
2023/07/07 09:46:39;;;;;;;;;7.80;6.00;;;;;25.50;46.39;99340.28;5106634;27;47373;-65
2023/07/07 09:49:16;;;;;;;;;5.60;5.40;;;;;25.56;45.19;99345.09;5087021;27;45407;-65
2023/07/07 09:52:19;;;;;;;;;8.60;7.40;;;;;25.62;44.72;99341.00;5090155;27;45456;-66
2023/07/07 09:54:46;;;;;;;;;9.00;6.80;;;;;25.68;44.30;99343.06;5086716;27;45666;-65
2023/07/07 09:57:21;;;;;;;;;7.80;7.60;;;;;25.76;44.25;99340.47;5091454;27;46338;-65
2023/07/07 09:59:50;;;;;;;;;8.20;7.00;;;;;25.83;44.11;99336.13;5088154;27;45422;-65
2023/07/07 10:02:19;;;;;;;;;15.60;12.40;;;;;25.94;44.28;99329.69;5092543;27;45499;-67
2023/07/07 10:04:50;;;;;;;;;4.40;2.60;;;;;26.03;43.93;99326.03;5079465;27;45510;-65
2023/07/07 10:07:18;;;;;;;;;8.00;8.00;;;;;26.11;43.25;99334.25;5088259;27;45463;-65
2023/07/07 10:09:44;;;;;;;;;8.00;8.00;;;;;26.18;43.25;99320.94;5084542;27;45433;-65
2023/07/07 10:12:15;;;;;;;;;7.00;7.00;;;;;26.26;42.35;99321.88;5092140;27;45614;-66
2023/07/07 10:14:42;;;;;;;;;7.00;6.20;;;;;26.33;42.15;99317.53;5090917;27;45889;-66
2023/07/07 10:17:10;;;;;;;;;7.40;6.60;;;;;26.42;42.33;99318.47;5091948;27;45439;-65
2023/07/07 10:19:52;;;;;;;;;7.20;6.00;;;;;26.50;42.29;99315.81;5083151;27;45510;-64
2023/07/07 10:22:17;;;;;;;;;9.40;6.00;;;;;26.58;41.96;99307.78;5087442;27;45457;-65
2023/07/07 10:24:43;;;;;;;;;8.75;8.75;;;;;26.70;42.11;99306.50;5092716;27;45517;-65
2023/07/07 10:27:12;;;;;;;;;7.25;6.50;;;;;26.82;41.93;99308.91;5091740;27;46414;-65
2023/07/07 10:29:40;;;;;;;;;6.00;5.60;;;;;26.91;41.48;99306.13;5081784;27;45403;-65
2023/07/07 10:32:12;;;;;;;;;7.80;7.80;;;;;27.01;41.66;99306.03;5090135;27;45517;-65
2023/07/07 10:34:43;;;;;;;;;7.20;7.20;;;;;27.13;41.47;99301.19;5082970;27;45378;-65
2023/07/07 10:37:23;;;;;;;;;8.80;8.00;;;;;27.22;41.11;99302.91;5091324;27;45463;-65
2023/07/07 10:39:59;;;;;;;;;8.40;8.40;;;;;27.30;41.23;99289.41;5096127;27;45484;-65
2023/07/07 10:42:27;;;;;;;;;10.20;6.40;;;;;27.39;41.37;99288.41;5092260;27;45623;-65
2023/07/07 10:44:55;;;;;;;;;8.00;7.20;;;;;27.44;41.20;99278.78;5084553;27;45806;-65
2023/07/07 10:47:28;;;;;;;;;8.20;6.60;;;;;27.57;40.89;99286.47;5091435;27;45464;-65
2023/07/07 10:49:55;;;;;;;;;4.20;4.20;;;;;27.65;41.26;99285.66;5080953;27;45559;-65
2023/07/07 10:52:30;;;;;;;;;7.00;6.60;;;;;27.76;40.77;99277.19;5080416;27;45521;-66
2023/07/07 10:55:20;;;;;;;;;10.50;7.75;;;;;27.85;40.62;99278.03;5086662;27;45574;-64
2023/07/07 10:58:07;;;;;;;;;7.60;6.60;;;;;27.92;41.13;99273.66;5091848;27;45454;-64
2023/07/07 11:01:23;;;;;;;;;5.20;5.20;;;;;28.00;40.98;99266.38;5088312;27;45439;-65
2023/07/07 11:04:00;;;;;;;;;5.60;5.60;;;;;28.09;41.19;99259.09;5062268;27;45472;-65
2023/07/07 11:06:29;;;;;;;;;6.60;6.20;;;;;28.17;40.38;99264.50;5083290;27;45524;-66
2023/07/07 11:09:16;;;;;;;;;5.80;5.80;;;;;28.25;41.21;99261.84;5082774;27;45454;-65
2023/07/07 11:12:01;;;;;;;;;9.40;8.00;;;;;28.35;41.04;99262.50;5091255;27;45506;-66
2023/07/07 11:15:05;;;;;;;;;8.80;6.40;;;;;28.46;40.97;99267.59;5090218;27;45502;-65
2023/07/07 11:17:30;;;;;;;;;9.50;8.50;;;;;28.55;41.15;99260.25;5081844;27;45506;-65
2023/07/07 11:20:11;;;;;;;;;6.00;6.00;;;;;28.60;40.14;99251.63;5099812;27;47324;-65
2023/07/07 11:23:02;;;;;;;;;6.20;6.20;;;;;28.61;40.35;99251.44;5081446;27;45432;-66
2023/07/07 11:25:30;;;;;;;;;11.40;7.80;;;;;28.68;40.81;99246.16;5082287;27;45708;-66
2023/07/07 11:28:06;;;;;;;;;6.80;6.80;;;;;28.73;40.36;99247.34;5094589;27;45612;-65
2023/07/07 11:30:48;;;;;;;;;6.20;5.40;;;;;28.79;40.97;99237.66;5084141;27;47325;-65
2023/07/07 11:33:14;;;;;;;;;9.80;9.00;;;;;28.86;40.58;99232.38;5093005;27;45508;-65
2023/07/07 11:35:56;;;;;;;;;9.00;9.00;;;;;28.93;40.74;99227.97;5093685;27;45561;-65
2023/07/07 11:38:46;;;;;;;;;9.80;7.80;;;;;29.03;41.40;99218.56;5092906;27;45635;-65
2023/07/07 11:41:25;;;;;;;;;6.40;6.40;;;;;29.14;41.48;99217.34;5089366;27;45526;-65
2023/07/07 11:43:50;;;;;;;;;6.20;5.40;;;;;29.21;41.33;99210.16;5090467;27;45675;-66